New York, New York
Traffic Map
Current Weather Conditions
New York, New York
Clear
Clear

Feels Like: -3°
Wind Chill: -3° Ceiling: Unl
Heat Index: Visibility: 10mi
Dew Point: -4° Wind: 8mph
Humidity: 70% Direction: 300° (WNW)
Pressure: 29.9in Gusts: 0mph
Raw Report DataKNYC 010751Z AUTO 30007KT 10SM CLR 01/M04 A2990 RMK AO2 SLP117 T00111039 $
Traffic Incident Summary
Active as of:
Severity:
Category:
InformationThere was an issue retrieving the traffic information for this location. Please try a different location or try again shortly.
Advertisements
Track Severe Weather on mobile